createdAt,value
2018-03-22T00:01:07.614Z,1.00
2018-03-22T00:03:34.532Z,1.00
2018-03-22T00:06:00.715Z,1.00
2018-03-22T00:08:26.905Z,1.00
2018-03-22T00:10:53.056Z,0.90
2018-03-22T00:13:19.304Z,0.90
2018-03-22T00:15:45.492Z,0.90
2018-03-22T00:18:12.347Z,0.90
2018-03-22T00:20:39.239Z,1.00
2018-03-22T00:23:05.418Z,1.00
2018-03-22T00:25:31.588Z,1.00
2018-03-22T00:27:58.502Z,1.00
2018-03-22T00:30:24.676Z,1.00
2018-03-22T00:32:51.617Z,1.00
2018-03-22T00:35:17.817Z,1.10
2018-03-22T00:37:43.985Z,1.10
2018-03-22T00:40:10.169Z,1.10
2018-03-22T00:42:37.102Z,1.20
2018-03-22T00:45:03.274Z,1.10
2018-03-22T00:47:29.438Z,1.20
2018-03-22T00:49:55.667Z,1.20
2018-03-22T00:52:21.832Z,1.20
2018-03-22T00:54:48.005Z,1.20
2018-03-22T00:57:14.150Z,1.20
2018-03-22T00:59:41.051Z,1.10
2018-03-22T01:02:07.227Z,1.10
2018-03-22T01:04:33.415Z,1.10
2018-03-22T01:06:59.594Z,1.20
2018-03-22T01:09:25.756Z,1.20
2018-03-22T01:11:52.712Z,1.20
2018-03-22T01:14:18.886Z,1.20
2018-03-22T01:16:45.115Z,1.20
2018-03-22T01:19:11.274Z,1.20
2018-03-22T01:21:37.470Z,1.20
2018-03-22T01:24:03.660Z,1.20
2018-03-22T01:26:29.824Z,1.20
2018-03-22T01:28:56.008Z,1.20
2018-03-22T01:31:22.903Z,1.30
2018-03-22T01:33:49.067Z,1.30
2018-03-22T01:36:15.266Z,1.30
2018-03-22T01:38:41.491Z,1.30
2018-03-22T01:41:07.671Z,1.30
2018-03-22T01:43:33.864Z,1.30
2018-03-22T01:46:00.817Z,1.40
2018-03-22T01:48:26.990Z,1.30
2018-03-22T01:50:53.158Z,1.40
2018-03-22T01:53:19.321Z,1.40
2018-03-22T01:55:45.542Z,1.40
2018-03-22T01:58:11.722Z,1.40
2018-03-22T02:00:38.623Z,1.50
2018-03-22T02:03:04.775Z,1.50
2018-03-22T02:05:30.939Z,1.50
2018-03-22T02:07:57.842Z,1.60
2018-03-22T02:10:24.018Z,1.50
2018-03-22T02:12:50.165Z,1.60
2018-03-22T02:15:16.311Z,1.60
2018-03-22T02:17:43.182Z,1.60
2018-03-22T02:20:10.117Z,1.60
2018-03-22T02:22:36.307Z,1.60
2018-03-22T02:25:02.439Z,1.60
2018-03-22T02:27:28.605Z,1.60
2018-03-22T02:29:54.804Z,1.60
2018-03-22T02:32:20.954Z,1.60
2018-03-22T02:34:47.108Z,1.60
2018-03-22T02:37:13.302Z,1.60
2018-03-22T02:39:40.265Z,1.60
2018-03-22T02:42:07.196Z,1.60
2018-03-22T02:44:33.354Z,1.60
2018-03-22T02:47:00.265Z,1.60
2018-03-22T02:49:26.434Z,1.60
2018-03-22T02:51:52.632Z,1.60
2018-03-22T02:54:18.776Z,1.60
2018-03-22T02:56:44.949Z,1.60
2018-03-22T02:59:11.129Z,1.60
2018-03-22T03:01:37.299Z,1.60
2018-03-22T03:04:03.452Z,1.60
2018-03-22T03:06:29.943Z,1.60
2018-03-22T03:08:56.874Z,1.60
2018-03-22T03:11:23.029Z,1.60
2018-03-22T03:13:49.190Z,1.60
2018-03-22T03:16:15.362Z,1.60
2018-03-22T03:18:41.527Z,1.60
2018-03-22T03:21:07.731Z,1.60
2018-03-22T03:23:33.884Z,1.60
2018-03-22T03:26:00.036Z,1.60
2018-03-22T03:28:26.189Z,1.60
2018-03-22T03:30:52.337Z,1.60
2018-03-22T03:33:18.557Z,1.60
2018-03-22T03:35:44.723Z,1.60
2018-03-22T03:38:11.662Z,1.60
2018-03-22T03:40:37.841Z,1.50
2018-03-22T03:43:04.007Z,1.60
2018-03-22T03:45:30.228Z,1.60
2018-03-22T03:47:56.389Z,1.60
2018-03-22T03:50:22.558Z,1.70
2018-03-22T03:52:48.700Z,1.70
2018-03-22T03:55:14.863Z,1.70
2018-03-22T03:57:41.774Z,1.70
2018-03-22T04:00:07.921Z,1.70
2018-03-22T04:02:34.111Z,1.70
2018-03-22T04:05:00.279Z,1.70
2018-03-22T04:07:26.466Z,1.80
2018-03-22T04:09:52.641Z,1.80
2018-03-22T04:12:18.808Z,1.80
2018-03-22T04:14:44.986Z,1.80
2018-03-22T04:17:11.928Z,1.90
2018-03-22T04:19:38.089Z,1.80
2018-03-22T04:22:04.995Z,1.90
2018-03-22T04:24:31.178Z,1.80
2018-03-22T04:26:57.320Z,1.90
2018-03-22T04:29:24.234Z,1.90
2018-03-22T04:31:50.398Z,1.90
2018-03-22T04:34:16.542Z,1.90
2018-03-22T04:36:42.737Z,1.90
2018-03-22T04:39:08.923Z,1.90
2018-03-22T04:41:35.109Z,1.90
2018-03-22T04:44:01.254Z,1.90
2018-03-22T04:46:27.415Z,1.90
2018-03-22T04:48:53.579Z,1.90
2018-03-22T04:51:20.503Z,2.00
2018-03-22T04:53:46.703Z,2.00
2018-03-22T04:56:12.874Z,2.00
2018-03-22T04:58:39.049Z,2.00
2018-03-22T05:01:05.197Z,2.00
2018-03-22T05:03:31.383Z,2.00
2018-03-22T05:05:57.562Z,2.00
2018-03-22T05:08:23.703Z,2.00
2018-03-22T05:10:49.890Z,2.00
2018-03-22T05:13:16.058Z,2.00
2018-03-22T05:15:42.246Z,2.00
2018-03-22T05:18:09.110Z,2.10
2018-03-22T05:20:35.977Z,2.10
2018-03-22T05:23:02.104Z,2.10
2018-03-22T05:25:28.965Z,2.10
2018-03-22T05:27:55.171Z,2.10
2018-03-22T05:30:21.341Z,2.10
2018-03-22T05:32:47.518Z,2.20
2018-03-22T05:35:13.701Z,2.20
2018-03-22T05:37:40.566Z,2.20
2018-03-22T05:40:07.435Z,2.30
2018-03-22T05:42:34.373Z,2.30
2018-03-22T05:45:00.543Z,2.30
2018-03-22T05:47:26.761Z,2.40
2018-03-22T05:49:53.659Z,2.40
2018-03-22T05:52:21.333Z,2.40
2018-03-22T05:54:47.475Z,2.40
2018-03-22T05:57:13.663Z,2.50
2018-03-22T05:59:39.811Z,2.50
2018-03-22T06:02:06.723Z,2.60
2018-03-22T06:04:32.949Z,2.60
2018-03-22T06:06:59.129Z,2.70
2018-03-22T06:09:25.281Z,2.70
2018-03-22T06:11:52.173Z,2.80
2018-03-22T06:14:18.362Z,2.80
2018-03-22T06:16:44.517Z,2.80
2018-03-22T06:19:11.455Z,2.90
2018-03-22T06:21:39.107Z,3.00
2018-03-22T06:24:05.330Z,2.90
2018-03-22T06:26:31.507Z,3.10
2018-03-22T06:28:58.426Z,3.10
2018-03-22T06:31:24.601Z,3.10
2018-03-22T06:33:50.801Z,3.20
2018-03-22T06:36:16.981Z,3.20
2018-03-22T06:38:43.118Z,3.20
2018-03-22T06:41:10.789Z,3.20
2018-03-22T06:43:36.999Z,3.20
2018-03-22T06:46:03.165Z,3.30
2018-03-22T06:48:29.391Z,3.30
2018-03-22T06:50:55.725Z,3.40
2018-03-22T06:53:21.885Z,3.50
2018-03-22T06:55:48.050Z,3.60
2018-03-22T06:58:14.986Z,3.70
2018-03-22T07:00:41.153Z,3.70
2018-03-22T07:03:08.068Z,4.00
2018-03-22T07:05:34.249Z,4.00
2018-03-22T07:08:01.179Z,4.20
2018-03-22T07:10:27.349Z,4.20
2018-03-22T07:12:54.283Z,4.40
2018-03-22T07:15:20.443Z,4.40
2018-03-22T07:17:47.297Z,4.50
2018-03-22T07:20:13.438Z,4.40
2018-03-22T07:22:40.387Z,4.50
2018-03-22T07:25:06.538Z,4.50
2018-03-22T07:27:33.422Z,4.60
2018-03-22T07:29:59.577Z,4.60
2018-03-22T07:32:25.765Z,4.60
2018-03-22T07:34:52.655Z,4.80
2018-03-22T07:37:18.823Z,4.80
2018-03-22T07:39:45.006Z,4.90
2018-03-22T07:42:11.951Z,5.10
2018-03-22T07:44:39.934Z,5.10
2018-03-22T07:47:06.101Z,5.20
2018-03-22T07:49:32.270Z,5.40
2018-03-22T07:51:58.464Z,5.60
2018-03-22T07:54:25.361Z,5.90
2018-03-22T07:56:51.494Z,5.80
2018-03-22T07:59:17.683Z,5.90
2018-03-22T08:01:43.905Z,5.90
2018-03-22T08:04:10.097Z,5.90
2018-03-22T08:06:36.271Z,5.90
2018-03-22T08:09:02.426Z,5.90
2018-03-22T08:11:28.632Z,5.80
2018-03-22T08:13:54.821Z,5.60
2018-03-22T08:16:20.977Z,5.50
2018-03-22T08:18:47.871Z,5.40
2018-03-22T08:21:14.006Z,5.30
2018-03-22T08:23:40.161Z,5.30
2018-03-22T08:26:06.358Z,5.10
2018-03-22T08:28:33.270Z,5.00
2018-03-22T08:30:59.463Z,4.90
2018-03-22T08:33:25.638Z,4.80
2018-03-22T08:35:51.788Z,4.90
2018-03-22T08:38:17.979Z,4.90
2018-03-22T08:40:44.166Z,4.80
2018-03-22T08:43:10.319Z,4.80
2018-03-22T08:45:36.529Z,4.90
2018-03-22T08:48:02.673Z,5.00
2018-03-22T08:50:28.874Z,5.10
2018-03-22T08:52:55.802Z,5.20
2018-03-22T08:55:21.970Z,5.20
2018-03-22T08:57:48.920Z,5.40
2018-03-22T09:00:15.837Z,5.60
2018-03-22T09:02:41.993Z,5.60
2018-03-22T09:05:08.198Z,5.80
2018-03-22T09:07:34.402Z,6.00
2018-03-22T09:10:01.319Z,6.10
2018-03-22T09:12:27.518Z,6.10
2018-03-22T09:14:53.707Z,6.20
2018-03-22T09:17:19.899Z,6.30
2018-03-22T09:19:46.062Z,6.40
2018-03-22T09:22:12.234Z,6.50
2018-03-22T09:24:38.408Z,6.50
2018-03-22T09:27:04.587Z,6.40
2018-03-22T09:29:30.774Z,6.40
2018-03-22T09:31:57.705Z,6.20
2018-03-22T09:34:30.085Z,6.20
2018-03-22T09:36:56.258Z,6.10
2018-03-22T09:39:23.179Z,6.10
2018-03-22T09:41:49.355Z,6.10
2018-03-22T09:44:16.258Z,5.90
2018-03-22T09:46:42.430Z,5.90
2018-03-22T09:49:08.615Z,5.80
2018-03-22T09:51:34.794Z,5.80
2018-03-22T09:54:00.953Z,5.80
2018-03-22T09:56:27.887Z,5.70
2018-03-22T09:58:54.069Z,5.70
2018-03-22T10:01:20.271Z,5.60
2018-03-22T10:03:46.490Z,5.60
2018-03-22T10:06:12.661Z,5.60
2018-03-22T10:08:38.886Z,5.60
2018-03-22T10:11:05.072Z,5.70
2018-03-22T10:13:31.274Z,5.70
2018-03-22T10:15:57.488Z,5.60
2018-03-22T10:18:23.675Z,5.60
2018-03-22T10:20:50.602Z,5.40
2018-03-22T10:23:16.824Z,5.40
2018-03-22T10:25:43.055Z,5.40
2018-03-22T10:28:17.473Z,5.40
2018-03-22T10:30:43.631Z,5.30
2018-03-22T10:33:09.814Z,5.40
2018-03-22T10:38:47.307Z,5.40
2018-03-22T10:41:13.466Z,5.30
2018-03-22T10:43:39.660Z,5.40
2018-03-22T10:46:06.591Z,5.40
2018-03-22T10:48:32.762Z,5.40
2018-03-22T10:50:58.950Z,5.40
2018-03-22T10:53:25.133Z,5.40
2018-03-22T10:55:51.254Z,5.40
2018-03-22T10:58:17.444Z,5.30
2018-03-22T11:00:49.716Z,5.20
2018-03-22T11:03:22.063Z,5.10
2018-03-22T11:05:48.998Z,5.10
2018-03-22T11:08:15.181Z,5.00
2018-03-22T11:10:41.394Z,5.10
2018-03-22T11:13:07.574Z,5.10
2018-03-22T11:15:33.769Z,5.20
2018-03-22T11:17:59.941Z,5.00
2018-03-22T11:20:26.130Z,5.00
2018-03-22T11:22:52.306Z,4.90
2018-03-22T11:25:19.203Z,4.90
2018-03-22T11:27:45.375Z,4.90
2018-03-22T11:30:11.668Z,4.90
2018-03-22T11:32:37.895Z,4.90
2018-03-22T11:35:04.801Z,5.00
2018-03-22T11:37:30.971Z,5.00
2018-03-22T11:39:57.903Z,5.10
2018-03-22T11:42:24.062Z,5.10
2018-03-22T11:44:50.221Z,5.20
2018-03-22T11:47:17.105Z,5.40
2018-03-22T11:49:43.286Z,5.40
2018-03-22T11:52:09.519Z,5.50
2018-03-22T11:54:35.686Z,5.40
2018-03-22T11:57:02.622Z,5.50
2018-03-22T11:59:28.821Z,5.40
2018-03-22T12:01:55.051Z,5.50
2018-03-22T12:04:21.154Z,5.50
2018-03-22T12:06:47.309Z,5.40
2018-03-22T12:09:14.280Z,5.50
2018-03-22T12:11:40.458Z,5.50
2018-03-22T12:14:06.632Z,5.50
2018-03-22T12:16:33.548Z,5.50
2018-03-22T12:18:59.735Z,5.50
2018-03-22T12:21:26.638Z,5.50
2018-03-22T12:23:52.820Z,5.50
2018-03-22T12:26:18.995Z,5.40
2018-03-22T12:28:45.182Z,5.40
2018-03-22T12:31:11.349Z,5.40
2018-03-22T12:33:38.288Z,5.40
2018-03-22T12:36:04.468Z,5.40
2018-03-22T12:38:30.650Z,5.40
2018-03-22T12:40:56.826Z,5.40
2018-03-22T12:46:27.395Z,5.40
2018-03-22T12:49:04.525Z,5.50
2018-03-22T12:51:30.732Z,5.50
2018-03-22T12:53:56.957Z,5.50
2018-03-22T12:56:33.910Z,5.50
2018-03-22T12:59:00.102Z,5.50
2018-03-22T13:01:26.266Z,5.40
2018-03-22T13:03:53.165Z,5.40
2018-03-22T13:06:19.366Z,5.40
2018-03-22T13:08:45.586Z,5.40
2018-03-22T13:11:12.531Z,5.60
2018-03-22T13:13:38.722Z,5.60
2018-03-22T13:16:04.862Z,5.70
2018-03-22T13:18:31.034Z,5.70
2018-03-22T13:20:57.194Z,5.80
2018-03-22T13:23:23.374Z,5.80
2018-03-22T13:25:49.602Z,5.80
2018-03-22T13:28:15.794Z,5.80
2018-03-22T13:30:42.010Z,5.70
2018-03-22T13:33:08.176Z,5.70
2018-03-22T13:35:34.358Z,5.80
2018-03-22T13:38:00.554Z,5.80
2018-03-22T13:40:26.727Z,5.70
2018-03-22T13:42:53.631Z,5.60
2018-03-22T13:45:19.823Z,5.60
2018-03-22T13:47:46.758Z,5.50
2018-03-22T13:50:12.915Z,5.50
2018-03-22T13:52:39.846Z,5.30
2018-03-22T13:55:06.034Z,5.30
2018-03-22T13:57:32.234Z,5.10
2018-03-22T13:59:59.118Z,4.80
2018-03-22T14:02:25.257Z,4.80
2018-03-22T14:04:52.169Z,4.80
2018-03-22T14:07:18.350Z,4.80
2018-03-22T14:09:45.280Z,4.80
2018-03-22T14:12:11.458Z,4.80
2018-03-22T14:14:37.641Z,4.70
2018-03-22T14:17:03.808Z,4.70
2018-03-22T14:19:29.982Z,4.60
2018-03-22T14:21:56.107Z,4.50
2018-03-22T14:24:22.306Z,4.40
2018-03-22T14:26:48.483Z,4.40
2018-03-22T14:29:15.414Z,4.20
2018-03-22T14:31:44.955Z,4.20
2018-03-22T14:34:11.854Z,4.10
2018-03-22T14:42:43.121Z,4.10
2018-03-22T14:45:09.323Z,4.10
2018-03-22T14:47:46.307Z,4.20
2018-03-22T14:50:15.870Z,4.20
2018-03-22T14:52:45.077Z,4.20
2018-03-22T14:55:24.573Z,4.20
2018-03-22T14:57:50.726Z,4.20
2018-03-22T15:00:16.937Z,4.20
2018-03-22T15:02:51.244Z,4.10
2018-03-22T15:05:17.351Z,4.10
2018-03-22T15:07:43.528Z,4.10
2018-03-22T15:10:10.462Z,4.10
2018-03-22T15:12:50.581Z,4.10
2018-03-22T15:15:16.758Z,4.10
2018-03-22T15:17:57.918Z,4.00
2018-03-22T15:20:24.051Z,4.00
2018-03-22T15:22:50.236Z,3.90
2018-03-22T15:25:16.365Z,3.90
2018-03-22T15:27:42.521Z,3.90
2018-03-22T15:30:08.685Z,3.90
2018-03-22T15:32:34.864Z,3.80
2018-03-22T15:35:01.007Z,3.90
2018-03-22T15:37:27.178Z,3.80
2018-03-22T15:39:53.357Z,3.80
2018-03-22T15:42:19.536Z,3.70
2018-03-22T15:44:45.739Z,3.80
2018-03-22T15:47:12.641Z,3.70
2018-03-22T15:49:38.778Z,3.70
2018-03-22T15:52:04.936Z,3.70
2018-03-22T15:54:31.105Z,3.70
2018-03-22T15:57:00.913Z,3.70
2018-03-22T15:59:27.100Z,3.70
2018-03-22T16:01:53.262Z,3.70
2018-03-22T16:04:19.481Z,3.70
2018-03-22T16:06:45.674Z,3.70
2018-03-22T16:09:11.818Z,3.70
2018-03-22T16:11:37.998Z,3.70
2018-03-22T16:14:04.204Z,3.70
2018-03-22T16:16:31.141Z,3.70
2018-03-22T16:18:57.290Z,3.70
2018-03-22T16:21:23.471Z,3.70
2018-03-22T16:23:49.613Z,3.70
2018-03-22T16:26:15.786Z,3.60
2018-03-22T16:28:41.953Z,3.70
2018-03-22T16:31:08.121Z,3.60
2018-03-22T16:33:34.270Z,3.70
2018-03-22T16:36:00.437Z,3.70
2018-03-22T16:38:26.627Z,3.70
2018-03-22T16:40:52.740Z,3.70
2018-03-22T16:43:18.910Z,3.70
2018-03-22T16:45:45.095Z,3.70
2018-03-22T16:48:11.285Z,3.70
2018-03-22T16:50:37.499Z,3.70
2018-03-22T16:53:03.701Z,3.70
2018-03-22T16:55:29.882Z,3.70
2018-03-22T16:57:56.805Z,3.70
2018-03-22T17:00:22.963Z,3.70
2018-03-22T17:02:49.146Z,3.80
2018-03-22T17:05:15.298Z,3.80
2018-03-22T17:07:41.461Z,3.80
2018-03-22T17:10:07.642Z,3.80
2018-03-22T17:12:33.786Z,3.80
2018-03-22T17:15:00.702Z,3.80
2018-03-22T17:17:26.859Z,3.80
2018-03-22T17:19:53.050Z,3.90
2018-03-22T17:22:19.194Z,3.90
2018-03-22T17:24:45.374Z,3.90
2018-03-22T17:27:11.541Z,3.90
2018-03-22T17:29:38.413Z,3.90
2018-03-22T17:32:04.565Z,3.90
2018-03-22T17:34:30.702Z,3.90
2018-03-22T17:36:56.875Z,3.90
2018-03-22T17:39:23.046Z,3.90
2018-03-22T17:41:49.939Z,3.80
2018-03-22T17:44:16.058Z,3.80
2018-03-22T17:46:42.173Z,3.80
2018-03-22T17:49:08.363Z,3.80
2018-03-22T17:51:34.571Z,3.80
2018-03-22T17:54:01.475Z,3.80
2018-03-22T17:56:27.670Z,3.80
2018-03-22T17:58:54.587Z,3.80
2018-03-22T18:01:20.733Z,3.80
2018-03-22T18:03:46.902Z,3.80
2018-03-22T18:06:13.769Z,3.70
2018-03-22T18:08:39.918Z,3.70
2018-03-22T18:11:06.101Z,3.70
2018-03-22T18:13:32.291Z,3.70
2018-03-22T18:15:58.458Z,3.70
2018-03-22T18:18:24.614Z,3.60
2018-03-22T18:20:50.794Z,3.60
2018-03-22T18:23:16.979Z,3.60
2018-03-22T18:25:43.186Z,3.60
2018-03-22T18:28:09.371Z,3.60
2018-03-22T18:30:35.567Z,3.60
2018-03-22T18:33:01.734Z,3.60
2018-03-22T18:35:27.952Z,3.60
2018-03-22T18:37:54.086Z,3.60
2018-03-22T18:40:20.243Z,3.60
2018-03-22T18:42:46.395Z,3.60
2018-03-22T18:45:12.561Z,3.60
2018-03-22T18:47:38.725Z,3.60
2018-03-22T18:50:05.646Z,3.60
2018-03-22T18:52:31.858Z,3.60
2018-03-22T18:54:58.007Z,3.60
2018-03-22T18:57:24.202Z,3.60
2018-03-22T18:59:51.145Z,3.60
2018-03-22T19:02:18.085Z,3.70
2018-03-22T19:04:44.297Z,3.60
2018-03-22T19:07:10.471Z,3.70
2018-03-22T19:09:36.621Z,3.70
2018-03-22T19:12:02.745Z,3.70
2018-03-22T19:14:28.912Z,3.70
2018-03-22T19:16:55.854Z,3.70
2018-03-22T19:19:22.042Z,3.70
2018-03-22T19:21:52.813Z,3.70
2018-03-22T19:24:18.989Z,3.70
2018-03-22T19:26:45.939Z,3.70
2018-03-22T19:29:12.852Z,3.70
2018-03-22T19:31:42.819Z,3.70
2018-03-22T19:34:09.777Z,3.70
2018-03-22T19:36:35.965Z,3.70
2018-03-22T19:39:02.093Z,3.70
2018-03-22T19:41:28.260Z,3.70
2018-03-22T19:43:54.447Z,3.70
2018-03-22T19:46:21.348Z,3.70
2018-03-22T19:48:54.939Z,3.60
2018-03-22T19:51:21.125Z,3.70
2018-03-22T19:53:47.321Z,3.70
2018-03-22T19:56:13.474Z,3.70
2018-03-22T19:58:39.674Z,3.70
2018-03-22T20:01:06.570Z,3.70
2018-03-22T20:03:32.758Z,3.70
2018-03-22T20:05:59.702Z,3.70
2018-03-22T20:08:25.976Z,3.70
2018-03-22T20:10:52.115Z,3.70
2018-03-22T20:13:19.045Z,3.70
2018-03-22T20:15:45.263Z,3.70
2018-03-22T20:18:11.459Z,3.70
2018-03-22T20:20:37.616Z,3.70
2018-03-22T20:23:03.793Z,3.70
2018-03-22T20:25:29.995Z,3.70
2018-03-22T20:27:56.159Z,3.70
2018-03-22T20:30:22.326Z,3.70
2018-03-22T20:32:48.482Z,3.70
2018-03-22T20:35:15.400Z,3.70
2018-03-22T20:37:41.545Z,3.70
2018-03-22T20:40:07.710Z,3.70
2018-03-22T20:42:33.909Z,3.70
2018-03-22T20:45:00.135Z,3.80
2018-03-22T20:47:26.294Z,3.80
2018-03-22T20:49:52.511Z,3.80
2018-03-22T20:52:18.698Z,3.70
2018-03-22T20:54:44.877Z,3.80
2018-03-22T20:57:11.068Z,3.80
2018-03-22T20:59:37.221Z,3.80
2018-03-22T21:02:03.439Z,3.80
2018-03-22T21:04:29.607Z,3.80
2018-03-22T21:06:56.507Z,3.80
2018-03-22T21:09:22.702Z,3.80
2018-03-22T21:11:48.870Z,3.90
2018-03-22T21:14:15.024Z,3.90
2018-03-22T21:16:41.231Z,3.90
2018-03-22T21:19:08.150Z,3.90
2018-03-22T21:21:34.321Z,3.90
2018-03-22T21:24:01.227Z,3.90
2018-03-22T21:26:27.349Z,3.90
2018-03-22T21:28:53.543Z,3.90
2018-03-22T21:31:19.714Z,3.90
2018-03-22T21:33:45.966Z,4.00
2018-03-22T21:36:19.235Z,4.00
2018-03-22T21:38:46.143Z,4.00
2018-03-22T21:41:12.331Z,4.00
2018-03-22T21:43:57.981Z,3.90
2018-03-22T21:46:24.164Z,4.00
2018-03-22T21:48:50.389Z,4.00
2018-03-22T21:51:16.617Z,4.00
2018-03-22T21:53:42.790Z,4.00
2018-03-22T21:56:08.963Z,4.00
2018-03-22T21:58:35.138Z,4.00
2018-03-22T22:01:01.306Z,4.00
2018-03-22T22:03:27.463Z,4.00
2018-03-22T22:05:54.394Z,4.00
2018-03-22T22:08:20.558Z,4.00
2018-03-22T22:11:09.286Z,4.10
2018-03-22T22:13:35.479Z,4.00
2018-03-22T22:16:01.675Z,4.10
2018-03-22T22:18:27.853Z,4.10
2018-03-22T22:24:00.078Z,4.10
2018-03-22T22:26:26.291Z,4.10
2018-03-22T22:29:17.970Z,4.10
2018-03-22T22:31:44.139Z,4.10
2018-03-22T22:34:21.358Z,4.10
2018-03-22T22:36:58.465Z,4.10
2018-03-22T22:39:32.945Z,4.10
2018-03-22T22:41:59.086Z,4.10
2018-03-22T22:44:25.257Z,4.10
2018-03-22T22:46:51.440Z,4.10
2018-03-22T22:49:17.646Z,4.10
2018-03-22T22:51:43.844Z,4.10
2018-03-22T22:54:43.120Z,4.20
2018-03-22T22:57:10.027Z,4.20
2018-03-22T22:59:36.187Z,4.20
2018-03-22T23:02:29.355Z,4.20
2018-03-22T23:04:55.523Z,4.20
2018-03-22T23:07:21.671Z,4.20
2018-03-22T23:10:04.250Z,4.30
2018-03-22T23:15:35.849Z,4.30
2018-03-22T23:18:02.022Z,4.30
2018-03-22T23:20:28.193Z,4.30
2018-03-22T23:22:54.334Z,4.30
2018-03-22T23:25:27.147Z,4.20
2018-03-22T23:27:53.346Z,4.20
2018-03-22T23:30:53.416Z,4.20
2018-03-22T23:33:25.895Z,4.20
2018-03-22T23:35:52.073Z,4.20
2018-03-22T23:38:23.306Z,4.30
2018-03-22T23:40:49.465Z,4.30
2018-03-22T23:43:15.606Z,4.30
2018-03-22T23:45:41.729Z,4.30
2018-03-22T23:48:19.395Z,4.30
2018-03-22T23:50:46.331Z,4.20
2018-03-22T23:53:12.508Z,4.20
2018-03-22T23:55:39.384Z,4.20
2018-03-22T23:58:05.563Z,4.20
